sensor_id;sensor_type;location;lat;lon;timestamp;pressure;altitude;pressure_sealevel;temperature
11926;BMP180;6022;48.768;18.608;2023-04-15T00:01:40;97238.50;;;7.63
11926;BMP180;6022;48.768;18.608;2023-04-15T00:04:07;97245.19;;;7.64
11926;BMP180;6022;48.768;18.608;2023-04-15T00:06:36;97239.13;;;7.44
11926;BMP180;6022;48.768;18.608;2023-04-15T00:09:04;97241.78;;;7.30
11926;BMP180;6022;48.768;18.608;2023-04-15T00:11:31;97229.47;;;7.38
11926;BMP180;6022;48.768;18.608;2023-04-15T00:13:58;97231.66;;;7.42
11926;BMP180;6022;48.768;18.608;2023-04-15T00:16:27;97239.66;;;7.36
11926;BMP180;6022;48.768;18.608;2023-04-15T00:18:54;97246.78;;;6.94
11926;BMP180;6022;48.768;18.608;2023-04-15T00:21:22;97250.03;;;6.96
11926;BMP180;6022;48.768;18.608;2023-04-15T00:23:49;97255.13;;;7.07
11926;BMP180;6022;48.768;18.608;2023-04-15T00:26:19;97264.09;;;7.23
11926;BMP180;6022;48.768;18.608;2023-04-15T00:28:47;97263.66;;;7.29
11926;BMP180;6022;48.768;18.608;2023-04-15T00:31:14;97254.50;;;7.28
11926;BMP180;6022;48.768;18.608;2023-04-15T00:33:41;97262.44;;;7.35
11926;BMP180;6022;48.768;18.608;2023-04-15T00:36:09;97260.84;;;7.34
11926;BMP180;6022;48.768;18.608;2023-04-15T00:38:37;97263.84;;;7.39
11926;BMP180;6022;48.768;18.608;2023-04-15T00:41:05;97259.50;;;7.41
11926;BMP180;6022;48.768;18.608;2023-04-15T00:43:32;97268.88;;;7.39
11926;BMP180;6022;48.768;18.608;2023-04-15T00:46:00;97268.34;;;7.23
11926;BMP180;6022;48.768;18.608;2023-04-15T00:48:31;97256.03;;;7.18
11926;BMP180;6022;48.768;18.608;2023-04-15T00:50:58;97251.47;;;7.23
11926;BMP180;6022;48.768;18.608;2023-04-15T00:53:25;97247.94;;;7.26
11926;BMP180;6022;48.768;18.608;2023-04-15T00:55:55;97244.28;;;7.30
11926;BMP180;6022;48.768;18.608;2023-04-15T00:58:23;97253.22;;;7.23
11926;BMP180;6022;48.768;18.608;2023-04-15T01:00:51;97242.72;;;7.16
11926;BMP180;6022;48.768;18.608;2023-04-15T01:03:20;97244.25;;;7.19
11926;BMP180;6022;48.768;18.608;2023-04-15T01:05:48;97249.88;;;7.22
11926;BMP180;6022;48.768;18.608;2023-04-15T01:08:16;97253.47;;;7.31
11926;BMP180;6022;48.768;18.608;2023-04-15T01:10:43;97250.69;;;7.11
11926;BMP180;6022;48.768;18.608;2023-04-15T01:13:11;97242.94;;;7.14
11926;BMP180;6022;48.768;18.608;2023-04-15T01:15:39;97239.03;;;7.10
11926;BMP180;6022;48.768;18.608;2023-04-15T01:18:06;97234.50;;;7.02
11926;BMP180;6022;48.768;18.608;2023-04-15T01:20:34;97233.81;;;7.00
11926;BMP180;6022;48.768;18.608;2023-04-15T01:23:02;97242.53;;;7.07
11926;BMP180;6022;48.768;18.608;2023-04-15T01:25:33;97242.44;;;7.09
11926;BMP180;6022;48.768;18.608;2023-04-15T01:28:01;97245.56;;;7.12
11926;BMP180;6022;48.768;18.608;2023-04-15T01:30:33;97246.69;;;7.08
11926;BMP180;6022;48.768;18.608;2023-04-15T01:33:01;97247.41;;;6.98
11926;BMP180;6022;48.768;18.608;2023-04-15T01:35:28;97244.34;;;7.05
11926;BMP180;6022;48.768;18.608;2023-04-15T01:38:05;97250.31;;;7.04
11926;BMP180;6022;48.768;18.608;2023-04-15T01:40:34;97244.97;;;7.09
11926;BMP180;6022;48.768;18.608;2023-04-15T01:43:01;97241.53;;;7.10
11926;BMP180;6022;48.768;18.608;2023-04-15T01:45:29;97239.13;;;7.08
11926;BMP180;6022;48.768;18.608;2023-04-15T01:47:58;97242.84;;;7.15
11926;BMP180;6022;48.768;18.608;2023-04-15T01:50:25;97239.13;;;7.08
11926;BMP180;6022;48.768;18.608;2023-04-15T01:52:53;97242.16;;;7.13
11926;BMP180;6022;48.768;18.608;2023-04-15T01:55:20;97234.28;;;7.05
11926;BMP180;6022;48.768;18.608;2023-04-15T01:57:47;97236.31;;;7.00
11926;BMP180;6022;48.768;18.608;2023-04-15T02:00:14;97243.38;;;6.95
11926;BMP180;6022;48.768;18.608;2023-04-15T02:02:42;97242.56;;;6.95
11926;BMP180;6022;48.768;18.608;2023-04-15T02:05:10;97252.34;;;6.99
11926;BMP180;6022;48.768;18.608;2023-04-15T02:07:38;97254.97;;;6.98
11926;BMP180;6022;48.768;18.608;2023-04-15T02:10:05;97256.50;;;7.00
11926;BMP180;6022;48.768;18.608;2023-04-15T02:12:32;97254.66;;;7.02
11926;BMP180;6022;48.768;18.608;2023-04-15T02:15:00;97264.06;;;7.00
11926;BMP180;6022;48.768;18.608;2023-04-15T02:17:27;97257.66;;;7.07
11926;BMP180;6022;48.768;18.608;2023-04-15T02:19:55;97261.22;;;7.05
11926;BMP180;6022;48.768;18.608;2023-04-15T02:22:22;97249.63;;;7.02
11926;BMP180;6022;48.768;18.608;2023-04-15T02:24:50;97253.03;;;7.01
11926;BMP180;6022;48.768;18.608;2023-04-15T02:27:21;97250.44;;;7.03
11926;BMP180;6022;48.768;18.608;2023-04-15T02:29:48;97252.63;;;7.07
11926;BMP180;6022;48.768;18.608;2023-04-15T02:32:17;97245.47;;;7.01
11926;BMP180;6022;48.768;18.608;2023-04-15T02:34:44;97250.44;;;7.03
11926;BMP180;6022;48.768;18.608;2023-04-15T02:37:13;97246.00;;;7.06
11926;BMP180;6022;48.768;18.608;2023-04-15T02:39:40;97249.41;;;7.05
11926;BMP180;6022;48.768;18.608;2023-04-15T02:42:08;97242.25;;;7.12
11926;BMP180;6022;48.768;18.608;2023-04-15T02:44:37;97241.91;;;7.16
11926;BMP180;6022;48.768;18.608;2023-04-15T02:47:05;97242.19;;;7.24
11926;BMP180;6022;48.768;18.608;2023-04-15T02:49:33;97239.63;;;7.13
11926;BMP180;6022;48.768;18.608;2023-04-15T02:52:00;97238.00;;;7.12
11926;BMP180;6022;48.768;18.608;2023-04-15T02:54:28;97243.84;;;7.13
11926;BMP180;6022;48.768;18.608;2023-04-15T02:56:55;97249.47;;;7.16
11926;BMP180;6022;48.768;18.608;2023-04-15T02:59:24;97246.78;;;7.19
11926;BMP180;6022;48.768;18.608;2023-04-15T03:01:51;97241.72;;;7.19
11926;BMP180;6022;48.768;18.608;2023-04-15T03:04:18;97232.53;;;7.18
11926;BMP180;6022;48.768;18.608;2023-04-15T03:06:46;97239.91;;;7.21
11926;BMP180;6022;48.768;18.608;2023-04-15T03:09:13;97232.34;;;7.09
11926;BMP180;6022;48.768;18.608;2023-04-15T03:11:40;97237.50;;;7.07
11926;BMP180;6022;48.768;18.608;2023-04-15T03:14:08;97235.09;;;7.06
11926;BMP180;6022;48.768;18.608;2023-04-15T03:16:35;97244.88;;;7.10
11926;BMP180;6022;48.768;18.608;2023-04-15T03:19:02;97240.00;;;7.07
11926;BMP180;6022;48.768;18.608;2023-04-15T03:21:30;97246.97;;;7.04
11926;BMP180;6022;48.768;18.608;2023-04-15T03:23:57;97241.03;;;7.05
11926;BMP180;6022;48.768;18.608;2023-04-15T03:26:29;97230.69;;;6.97
11926;BMP180;6022;48.768;18.608;2023-04-15T03:28:57;97241.13;;;7.03
11926;BMP180;6022;48.768;18.608;2023-04-15T03:31:24;97242.44;;;7.09
11926;BMP180;6022;48.768;18.608;2023-04-15T03:33:52;97246.25;;;7.14
11926;BMP180;6022;48.768;18.608;2023-04-15T03:36:20;97243.53;;;7.17
11926;BMP180;6022;48.768;18.608;2023-04-15T03:38:49;97245.47;;;7.14
11926;BMP180;6022;48.768;18.608;2023-04-15T03:41:17;97248.09;;;7.12
11926;BMP180;6022;48.768;18.608;2023-04-15T03:43:44;97251.22;;;7.15
11926;BMP180;6022;48.768;18.608;2023-04-15T03:46:11;97259.16;;;7.22
11926;BMP180;6022;48.768;18.608;2023-04-15T03:48:39;97253.50;;;7.18
11926;BMP180;6022;48.768;18.608;2023-04-15T03:51:08;97258.03;;;7.26
11926;BMP180;6022;48.768;18.608;2023-04-15T03:53:36;97250.25;;;7.29
11926;BMP180;6022;48.768;18.608;2023-04-15T03:56:03;97250.06;;;7.32
11926;BMP180;6022;48.768;18.608;2023-04-15T03:58:31;97249.13;;;7.33
11926;BMP180;6022;48.768;18.608;2023-04-15T04:00:58;97252.97;;;7.38
11926;BMP180;6022;48.768;18.608;2023-04-15T04:03:25;97258.59;;;7.42
11926;BMP180;6022;48.768;18.608;2023-04-15T04:05:53;97253.97;;;7.36
11926;BMP180;6022;48.768;18.608;2023-04-15T04:08:21;97260.84;;;7.34
11926;BMP180;6022;48.768;18.608;2023-04-15T04:10:50;97250.53;;;7.37
11926;BMP180;6022;48.768;18.608;2023-04-15T04:13:17;97256.97;;;7.41
11926;BMP180;6022;48.768;18.608;2023-04-15T04:15:47;97258.28;;;7.46
11926;BMP180;6022;48.768;18.608;2023-04-15T04:18:14;97259.19;;;7.45
11926;BMP180;6022;48.768;18.608;2023-04-15T04:20:41;97267.06;;;7.41
11926;BMP180;6022;48.768;18.608;2023-04-15T04:23:08;97265.25;;;7.43
11926;BMP180;6022;48.768;18.608;2023-04-15T04:25:36;97264.63;;;7.39
11926;BMP180;6022;48.768;18.608;2023-04-15T04:28:03;97258.19;;;7.35
11926;BMP180;6022;48.768;18.608;2023-04-15T04:30:31;97265.63;;;7.49
11926;BMP180;6022;48.768;18.608;2023-04-15T04:32:58;97266.59;;;7.59
11926;BMP180;6022;48.768;18.608;2023-04-15T04:35:27;97274.28;;;7.57
11926;BMP180;6022;48.768;18.608;2023-04-15T04:37:54;97274.06;;;7.60
11926;BMP180;6022;48.768;18.608;2023-04-15T04:40:21;97270.09;;;7.69
11926;BMP180;6022;48.768;18.608;2023-04-15T04:42:49;97266.13;;;7.77
11926;BMP180;6022;48.768;18.608;2023-04-15T04:45:16;97268.91;;;7.85
11926;BMP180;6022;48.768;18.608;2023-04-15T04:47:44;97270.94;;;7.80
11926;BMP180;6022;48.768;18.608;2023-04-15T04:50:11;97276.22;;;7.77
11926;BMP180;6022;48.768;18.608;2023-04-15T04:52:38;97276.44;;;7.74
11926;BMP180;6022;48.768;18.608;2023-04-15T04:55:06;97278.50;;;7.80
11926;BMP180;6022;48.768;18.608;2023-04-15T04:57:34;97279.00;;;7.85
11926;BMP180;6022;48.768;18.608;2023-04-15T05:00:02;97282.88;;;7.78
11926;BMP180;6022;48.768;18.608;2023-04-15T05:02:31;97290.81;;;7.61
11926;BMP180;6022;48.768;18.608;2023-04-15T05:04:58;97293.81;;;7.66
11926;BMP180;6022;48.768;18.608;2023-04-15T05:07:25;97290.19;;;7.70
11926;BMP180;6022;48.768;18.608;2023-04-15T05:09:53;97282.16;;;7.76
11926;BMP180;6022;48.768;18.608;2023-04-15T05:12:20;97288.41;;;7.83
11926;BMP180;6022;48.768;18.608;2023-04-15T05:14:47;97283.91;;;7.76
11926;BMP180;6022;48.768;18.608;2023-04-15T05:17:14;97282.66;;;7.81
11926;BMP180;6022;48.768;18.608;2023-04-15T05:19:41;97290.94;;;7.83
11926;BMP180;6022;48.768;18.608;2023-04-15T05:22:08;97282.06;;;7.78
11926;BMP180;6022;48.768;18.608;2023-04-15T05:24:35;97281.44;;;7.87
11926;BMP180;6022;48.768;18.608;2023-04-15T05:27:03;97283.69;;;8.02
11926;BMP180;6022;48.768;18.608;2023-04-15T05:29:30;97278.19;;;8.08
11926;BMP180;6022;48.768;18.608;2023-04-15T05:31:57;97284.25;;;8.28
11926;BMP180;6022;48.768;18.608;2023-04-15T05:34:25;97286.81;;;8.39
11926;BMP180;6022;48.768;18.608;2023-04-15T05:36:52;97284.97;;;8.41
11926;BMP180;6022;48.768;18.608;2023-04-15T05:39:19;97292.31;;;8.33
11926;BMP180;6022;48.768;18.608;2023-04-15T05:41:47;97288.09;;;8.45
11926;BMP180;6022;48.768;18.608;2023-04-15T05:44:14;97291.38;;;8.24
11926;BMP180;6022;48.768;18.608;2023-04-15T05:46:41;97302.66;;;8.41
11926;BMP180;6022;48.768;18.608;2023-04-15T05:49:11;97299.06;;;8.67
11926;BMP180;6022;48.768;18.608;2023-04-15T05:51:38;97305.03;;;8.77
11926;BMP180;6022;48.768;18.608;2023-04-15T05:54:05;97302.28;;;8.69
11926;BMP180;6022;48.768;18.608;2023-04-15T05:56:32;97306.81;;;8.42
11926;BMP180;6022;48.768;18.608;2023-04-15T05:58:59;97310.16;;;8.20
11926;BMP180;6022;48.768;18.608;2023-04-15T06:01:27;97313.72;;;8.40
11926;BMP180;6022;48.768;18.608;2023-04-15T06:03:55;97314.44;;;8.64
11926;BMP180;6022;48.768;18.608;2023-04-15T06:06:23;97310.13;;;9.53
11926;BMP180;6022;48.768;18.608;2023-04-15T06:08:52;97303.34;;;11.85
11926;BMP180;6022;48.768;18.608;2023-04-15T06:11:22;97301.75;;;14.21
11926;BMP180;6022;48.768;18.608;2023-04-15T06:13:49;97294.41;;;15.69
11926;BMP180;6022;48.768;18.608;2023-04-15T06:16:16;97293.19;;;15.48
11926;BMP180;6022;48.768;18.608;2023-04-15T06:18:45;97289.75;;;16.45
11926;BMP180;6022;48.768;18.608;2023-04-15T06:21:12;97291.97;;;17.87
11926;BMP180;6022;48.768;18.608;2023-04-15T06:23:40;97285.66;;;17.67
11926;BMP180;6022;48.768;18.608;2023-04-15T06:26:08;97293.59;;;17.42
11926;BMP180;6022;48.768;18.608;2023-04-15T06:28:39;97287.22;;;16.53
11926;BMP180;6022;48.768;18.608;2023-04-15T06:31:09;97291.78;;;15.61
11926;BMP180;6022;48.768;18.608;2023-04-15T06:33:36;97298.88;;;14.58
11926;BMP180;6022;48.768;18.608;2023-04-15T06:36:04;97302.00;;;13.21
11926;BMP180;6022;48.768;18.608;2023-04-15T06:38:31;97300.81;;;13.15
11926;BMP180;6022;48.768;18.608;2023-04-15T06:40:59;97311.59;;;11.39
11926;BMP180;6022;48.768;18.608;2023-04-15T06:43:26;97311.00;;;11.46
11926;BMP180;6022;48.768;18.608;2023-04-15T06:45:58;97312.72;;;11.16
11926;BMP180;6022;48.768;18.608;2023-04-15T06:48:35;97300.25;;;11.82
11926;BMP180;6022;48.768;18.608;2023-04-15T06:51:03;97302.75;;;11.33
11926;BMP180;6022;48.768;18.608;2023-04-15T06:53:38;97301.25;;;11.22
11926;BMP180;6022;48.768;18.608;2023-04-15T06:56:16;97305.78;;;10.68
11926;BMP180;6022;48.768;18.608;2023-04-15T06:58:52;97316.69;;;10.59
11926;BMP180;6022;48.768;18.608;2023-04-15T07:01:19;97310.59;;;10.71
11926;BMP180;6022;48.768;18.608;2023-04-15T07:03:47;97318.78;;;10.75
11926;BMP180;6022;48.768;18.608;2023-04-15T07:06:14;97318.22;;;10.71
11926;BMP180;6022;48.768;18.608;2023-04-15T07:08:41;97325.59;;;10.74
11926;BMP180;6022;48.768;18.608;2023-04-15T07:11:09;97321.69;;;10.19
11926;BMP180;6022;48.768;18.608;2023-04-15T07:13:36;97318.53;;;10.06
11926;BMP180;6022;48.768;18.608;2023-04-15T07:16:04;97322.56;;;10.29
11926;BMP180;6022;48.768;18.608;2023-04-15T07:18:31;97320.13;;;10.58
11926;BMP180;6022;48.768;18.608;2023-04-15T07:20:58;97325.88;;;10.60
11926;BMP180;6022;48.768;18.608;2023-04-15T07:23:26;97336.09;;;10.90
11926;BMP180;6022;48.768;18.608;2023-04-15T07:25:53;97337.63;;;10.82
11926;BMP180;6022;48.768;18.608;2023-04-15T07:28:21;97329.50;;;11.08
11926;BMP180;6022;48.768;18.608;2023-04-15T07:30:48;97336.25;;;10.98
11926;BMP180;6022;48.768;18.608;2023-04-15T07:33:15;97330.78;;;11.52
11926;BMP180;6022;48.768;18.608;2023-04-15T07:35:43;97331.97;;;12.72
11926;BMP180;6022;48.768;18.608;2023-04-15T07:38:11;97340.84;;;13.58
11926;BMP180;6022;48.768;18.608;2023-04-15T07:40:40;97333.66;;;13.98
11926;BMP180;6022;48.768;18.608;2023-04-15T07:43:08;97340.75;;;13.15
11926;BMP180;6022;48.768;18.608;2023-04-15T07:45:35;97338.75;;;13.54
11926;BMP180;6022;48.768;18.608;2023-04-15T07:48:03;97342.16;;;14.33
11926;BMP180;6022;48.768;18.608;2023-04-15T07:50:31;97346.25;;;13.56
11926;BMP180;6022;48.768;18.608;2023-04-15T07:52:58;97341.22;;;13.90
11926;BMP180;6022;48.768;18.608;2023-04-15T07:55:25;97343.41;;;13.85
11926;BMP180;6022;48.768;18.608;2023-04-15T07:57:54;97339.03;;;14.04
11926;BMP180;6022;48.768;18.608;2023-04-15T08:00:21;97343.91;;;13.89
11926;BMP180;6022;48.768;18.608;2023-04-15T08:02:49;97355.13;;;13.78
11926;BMP180;6022;48.768;18.608;2023-04-15T08:05:19;97348.56;;;12.94
11926;BMP180;6022;48.768;18.608;2023-04-15T08:07:47;97348.03;;;12.07
11926;BMP180;6022;48.768;18.608;2023-04-15T08:10:14;97356.81;;;11.84
11926;BMP180;6022;48.768;18.608;2023-04-15T08:12:41;97348.56;;;12.01
11926;BMP180;6022;48.768;18.608;2023-04-15T08:15:09;97354.09;;;12.15
11926;BMP180;6022;48.768;18.608;2023-04-15T08:17:36;97356.97;;;11.92
11926;BMP180;6022;48.768;18.608;2023-04-15T08:20:04;97351.00;;;12.11
11926;BMP180;6022;48.768;18.608;2023-04-15T08:22:32;97350.38;;;11.70
11926;BMP180;6022;48.768;18.608;2023-04-15T08:24:59;97353.97;;;11.68
11926;BMP180;6022;48.768;18.608;2023-04-15T08:27:26;97351.63;;;11.85
11926;BMP180;6022;48.768;18.608;2023-04-15T08:29:53;97350.22;;;12.20
11926;BMP180;6022;48.768;18.608;2023-04-15T08:32:21;97349.81;;;11.67
11926;BMP180;6022;48.768;18.608;2023-04-15T08:34:48;97346.38;;;11.68
11926;BMP180;6022;48.768;18.608;2023-04-15T08:37:16;97352.34;;;12.34
11926;BMP180;6022;48.768;18.608;2023-04-15T08:39:43;97347.66;;;12.77
11926;BMP180;6022;48.768;18.608;2023-04-15T08:42:15;97347.19;;;13.81
11926;BMP180;6022;48.768;18.608;2023-04-15T08:44:45;97345.38;;;15.37
11926;BMP180;6022;48.768;18.608;2023-04-15T08:47:13;97343.50;;;17.00
11926;BMP180;6022;48.768;18.608;2023-04-15T08:49:43;97341.88;;;16.99
11926;BMP180;6022;48.768;18.608;2023-04-15T08:52:11;97351.38;;;18.36
11926;BMP180;6022;48.768;18.608;2023-04-15T08:54:39;97350.72;;;17.20
11926;BMP180;6022;48.768;18.608;2023-04-15T08:57:06;97345.09;;;17.09
11926;BMP180;6022;48.768;18.608;2023-04-15T08:59:34;97348.94;;;16.65
11926;BMP180;6022;48.768;18.608;2023-04-15T09:02:03;97344.63;;;16.34
11926;BMP180;6022;48.768;18.608;2023-04-15T09:04:31;97340.69;;;15.99
11926;BMP180;6022;48.768;18.608;2023-04-15T09:06:59;97351.97;;;15.81
11926;BMP180;6022;48.768;18.608;2023-04-15T09:09:35;97348.06;;;15.11
11926;BMP180;6022;48.768;18.608;2023-04-15T09:12:07;97353.84;;;14.95
11926;BMP180;6022;48.768;18.608;2023-04-15T09:14:34;97354.38;;;15.49
11926;BMP180;6022;48.768;18.608;2023-04-15T09:17:03;97350.66;;;15.69
11926;BMP180;6022;48.768;18.608;2023-04-15T09:19:31;97346.53;;;15.43
11926;BMP180;6022;48.768;18.608;2023-04-15T09:22:01;97350.84;;;16.32
11926;BMP180;6022;48.768;18.608;2023-04-15T09:24:37;97346.53;;;17.27
11926;BMP180;6022;48.768;18.608;2023-04-15T09:27:05;97352.00;;;16.93
11926;BMP180;6022;48.768;18.608;2023-04-15T09:29:32;97350.03;;;17.10
11926;BMP180;6022;48.768;18.608;2023-04-15T09:32:14;97348.38;;;16.15
11926;BMP180;6022;48.768;18.608;2023-04-15T09:34:42;97347.97;;;16.51
11926;BMP180;6022;48.768;18.608;2023-04-15T09:37:09;97354.53;;;16.37
11926;BMP180;6022;48.768;18.608;2023-04-15T09:39:50;97351.81;;;17.18
11926;BMP180;6022;48.768;18.608;2023-04-15T09:42:21;97352.34;;;18.35
11926;BMP180;6022;48.768;18.608;2023-04-15T09:44:52;97350.50;;;18.88
11926;BMP180;6022;48.768;18.608;2023-04-15T09:47:28;97363.72;;;19.22
11926;BMP180;6022;48.768;18.608;2023-04-15T09:49:57;97347.88;;;19.47
11926;BMP180;6022;48.768;18.608;2023-04-15T09:52:25;97359.31;;;19.87
11926;BMP180;6022;48.768;18.608;2023-04-15T09:54:55;97347.16;;;19.53
11926;BMP180;6022;48.768;18.608;2023-04-15T09:57:23;97344.09;;;19.06
11926;BMP180;6022;48.768;18.608;2023-04-15T09:59:51;97350.44;;;19.75
11926;BMP180;6022;48.768;18.608;2023-04-15T10:02:19;97351.22;;;19.33
11926;BMP180;6022;48.768;18.608;2023-04-15T10:04:51;97354.56;;;19.05
11926;BMP180;6022;48.768;18.608;2023-04-15T10:07:21;97343.06;;;19.72
11926;BMP180;6022;48.768;18.608;2023-04-15T10:09:48;97349.13;;;19.94
11926;BMP180;6022;48.768;18.608;2023-04-15T10:12:16;97346.34;;;19.24
11926;BMP180;6022;48.768;18.608;2023-04-15T10:14:54;97345.22;;;19.26
11926;BMP180;6022;48.768;18.608;2023-04-15T10:17:27;97338.47;;;19.54
11926;BMP180;6022;48.768;18.608;2023-04-15T10:20:03;97345.53;;;19.09
11926;BMP180;6022;48.768;18.608;2023-04-15T10:22:32;97352.84;;;19.63
11926;BMP180;6022;48.768;18.608;2023-04-15T10:25:01;97346.91;;;18.53
11926;BMP180;6022;48.768;18.608;2023-04-15T10:27:32;97337.94;;;18.26
11926;BMP180;6022;48.768;18.608;2023-04-15T10:30:00;97329.97;;;18.21
11926;BMP180;6022;48.768;18.608;2023-04-15T10:32:30;97338.88;;;18.55
11926;BMP180;6022;48.768;18.608;2023-04-15T10:34:58;97334.81;;;17.33
11926;BMP180;6022;48.768;18.608;2023-04-15T10:37:37;97331.97;;;16.80
11926;BMP180;6022;48.768;18.608;2023-04-15T10:40:28;97345.13;;;16.38
11926;BMP180;6022;48.768;18.608;2023-04-15T10:42:59;97342.84;;;16.19
11926;BMP180;6022;48.768;18.608;2023-04-15T10:45:36;97345.03;;;16.14
11926;BMP180;6022;48.768;18.608;2023-04-15T10:48:06;97353.63;;;16.62
11926;BMP180;6022;48.768;18.608;2023-04-15T10:50:38;97362.69;;;17.89
11926;BMP180;6022;48.768;18.608;2023-04-15T10:53:10;97351.34;;;18.81
11926;BMP180;6022;48.768;18.608;2023-04-15T10:55:38;97341.84;;;18.89
11926;BMP180;6022;48.768;18.608;2023-04-15T10:58:10;97356.47;;;18.89
11926;BMP180;6022;48.768;18.608;2023-04-15T11:00:38;97364.78;;;18.91
11926;BMP180;6022;48.768;18.608;2023-04-15T11:03:09;97358.19;;;18.52
11926;BMP180;6022;48.768;18.608;2023-04-15T11:05:52;97363.84;;;18.17
11926;BMP180;6022;48.768;18.608;2023-04-15T11:08:58;97371.13;;;18.58
11926;BMP180;6022;48.768;18.608;2023-04-15T11:12:07;97363.84;;;19.28
11926;BMP180;6022;48.768;18.608;2023-04-15T11:14:40;97356.47;;;19.54
11926;BMP180;6022;48.768;18.608;2023-04-15T11:17:12;97356.75;;;19.30
11926;BMP180;6022;48.768;18.608;2023-04-15T11:19:40;97367.38;;;18.91
11926;BMP180;6022;48.768;18.608;2023-04-15T11:22:10;97366.91;;;17.67
11926;BMP180;6022;48.768;18.608;2023-04-15T11:24:47;97360.44;;;17.48
11926;BMP180;6022;48.768;18.608;2023-04-15T11:27:25;97371.03;;;17.30
11926;BMP180;6022;48.768;18.608;2023-04-15T11:29:53;97367.25;;;18.02
11926;BMP180;6022;48.768;18.608;2023-04-15T11:32:20;97350.75;;;18.34
11926;BMP180;6022;48.768;18.608;2023-04-15T11:34:48;97353.41;;;18.18
11926;BMP180;6022;48.768;18.608;2023-04-15T11:37:15;97361.31;;;17.71
11926;BMP180;6022;48.768;18.608;2023-04-15T11:39:42;97352.09;;;17.46
11926;BMP180;6022;48.768;18.608;2023-04-15T11:42:17;97351.50;;;17.13
11926;BMP180;6022;48.768;18.608;2023-04-15T11:44:44;97357.44;;;16.58
11926;BMP180;6022;48.768;18.608;2023-04-15T11:47:24;97356.97;;;16.55
11926;BMP180;6022;48.768;18.608;2023-04-15T11:49:51;97352.31;;;16.42
11926;BMP180;6022;48.768;18.608;2023-04-15T11:52:18;97357.56;;;16.49
11926;BMP180;6022;48.768;18.608;2023-04-15T11:54:46;97354.22;;;16.25
11926;BMP180;6022;48.768;18.608;2023-04-15T11:57:13;97360.13;;;16.41
11926;BMP180;6022;48.768;18.608;2023-04-15T11:59:42;97359.00;;;16.35
11926;BMP180;6022;48.768;18.608;2023-04-15T12:02:12;97359.97;;;16.42
11926;BMP180;6022;48.768;18.608;2023-04-15T12:04:40;97351.81;;;16.23
11926;BMP180;6022;48.768;18.608;2023-04-15T12:07:08;97357.19;;;16.12
11926;BMP180;6022;48.768;18.608;2023-04-15T12:09:39;97350.72;;;15.92
11926;BMP180;6022;48.768;18.608;2023-04-15T12:12:08;97358.38;;;15.92
11926;BMP180;6022;48.768;18.608;2023-04-15T12:14:40;97352.31;;;15.86
11926;BMP180;6022;48.768;18.608;2023-04-15T12:17:12;97352.56;;;15.75
11926;BMP180;6022;48.768;18.608;2023-04-15T12:19:41;97356.56;;;15.69
11926;BMP180;6022;48.768;18.608;2023-04-15T12:22:16;97365.38;;;15.75
11926;BMP180;6022;48.768;18.608;2023-04-15T12:24:44;97354.50;;;15.81
11926;BMP180;6022;48.768;18.608;2023-04-15T12:27:16;97353.53;;;15.74
11926;BMP180;6022;48.768;18.608;2023-04-15T12:29:43;97353.25;;;15.51
11926;BMP180;6022;48.768;18.608;2023-04-15T12:32:13;97352.56;;;15.67
11926;BMP180;6022;48.768;18.608;2023-04-15T12:34:50;97351.25;;;15.63
11926;BMP180;6022;48.768;18.608;2023-04-15T12:37:18;97354.34;;;15.74
11926;BMP180;6022;48.768;18.608;2023-04-15T12:39:48;97351.69;;;15.91
11926;BMP180;6022;48.768;18.608;2023-04-15T12:42:19;97358.34;;;14.76
11926;BMP180;6022;48.768;18.608;2023-04-15T12:44:46;97354.97;;;14.93
11926;BMP180;6022;48.768;18.608;2023-04-15T12:47:14;97356.75;;;15.17
11926;BMP180;6022;48.768;18.608;2023-04-15T12:49:41;97362.91;;;15.32
11926;BMP180;6022;48.768;18.608;2023-04-15T12:52:09;97366.34;;;15.23
11926;BMP180;6022;48.768;18.608;2023-04-15T12:54:36;97362.13;;;15.32
11926;BMP180;6022;48.768;18.608;2023-04-15T12:57:03;97384.75;;;15.10
11926;BMP180;6022;48.768;18.608;2023-04-15T12:59:34;97385.69;;;14.83
11926;BMP180;6022;48.768;18.608;2023-04-15T13:02:02;97387.59;;;14.81
11926;BMP180;6022;48.768;18.608;2023-04-15T13:04:30;97387.31;;;14.33
11926;BMP180;6022;48.768;18.608;2023-04-15T13:06:58;97401.44;;;14.27
11926;BMP180;6022;48.768;18.608;2023-04-15T13:09:26;97398.16;;;14.35
11926;BMP180;6022;48.768;18.608;2023-04-15T13:11:54;97396.34;;;14.44
11926;BMP180;6022;48.768;18.608;2023-04-15T13:14:25;97395.41;;;14.45
11926;BMP180;6022;48.768;18.608;2023-04-15T13:16:53;97407.13;;;14.56
11926;BMP180;6022;48.768;18.608;2023-04-15T13:19:20;97405.97;;;14.50
11926;BMP180;6022;48.768;18.608;2023-04-15T13:21:47;97410.72;;;14.45
11926;BMP180;6022;48.768;18.608;2023-04-15T13:24:14;97415.69;;;14.64
11926;BMP180;6022;48.768;18.608;2023-04-15T13:26:42;97416.47;;;14.65
11926;BMP180;6022;48.768;18.608;2023-04-15T13:29:09;97417.78;;;14.69
11926;BMP180;6022;48.768;18.608;2023-04-15T13:31:38;97420.47;;;14.67
11926;BMP180;6022;48.768;18.608;2023-04-15T13:34:05;97426.22;;;14.69
11926;BMP180;6022;48.768;18.608;2023-04-15T13:36:35;97427.13;;;14.60
11926;BMP180;6022;48.768;18.608;2023-04-15T13:39:03;97442.13;;;14.46
11926;BMP180;6022;48.768;18.608;2023-04-15T13:41:33;97436.81;;;14.39
11926;BMP180;6022;48.768;18.608;2023-04-15T13:44:00;97437.47;;;14.15
11926;BMP180;6022;48.768;18.608;2023-04-15T13:46:32;97436.63;;;14.24
11926;BMP180;6022;48.768;18.608;2023-04-15T13:48:59;97427.47;;;14.31
11926;BMP180;6022;48.768;18.608;2023-04-15T13:51:26;97442.56;;;14.15
11926;BMP180;6022;48.768;18.608;2023-04-15T13:53:53;97445.97;;;13.60
11926;BMP180;6022;48.768;18.608;2023-04-15T13:56:21;97455.44;;;13.77
11926;BMP180;6022;48.768;18.608;2023-04-15T13:58:48;97461.25;;;13.70
11926;BMP180;6022;48.768;18.608;2023-04-15T14:01:15;97461.75;;;13.37
11926;BMP180;6022;48.768;18.608;2023-04-15T14:03:43;97468.06;;;13.24
11926;BMP180;6022;48.768;18.608;2023-04-15T14:06:10;97471.25;;;13.45
11926;BMP180;6022;48.768;18.608;2023-04-15T14:08:40;97473.38;;;13.40
11926;BMP180;6022;48.768;18.608;2023-04-15T14:11:10;97464.81;;;13.41
11926;BMP180;6022;48.768;18.608;2023-04-15T14:13:38;97477.56;;;13.41
11926;BMP180;6022;48.768;18.608;2023-04-15T14:16:05;97480.25;;;13.21
11926;BMP180;6022;48.768;18.608;2023-04-15T14:18:32;97479.47;;;12.83
11926;BMP180;6022;48.768;18.608;2023-04-15T14:20:59;97493.19;;;12.71
11926;BMP180;6022;48.768;18.608;2023-04-15T14:23:27;97495.19;;;12.39